Terminal Aerodrome Forecast
Issued by NWS

Home | Current Version | Previous Version | Text Only | Print | Product List | Glossary On
Versions: 1 2 3 4 5 6 7 8 9 10 11 12 13 14 15 16 17 18 19 20 21 22 23 24
000
FTUS46 KSEW 010900 AAA
TAFBLI
TAF AMD
KBLI 010902Z 0109/0206 17005KT P6SM BKN070
     FM011200 17005KT P6SM OVC020
     FM011700 17009KT P6SM BKN025 BKN200
     FM011900 19009KT P6SM FEW035 SCT090 BKN200
     FM020000 VRB03KT P6SM SCT090 BKN200=

USA.gov is the U.S. government's official web portal to all federal, state and local government web resources and services.